sensor_id;sensor_type;location;lat;lon;timestamp;pressure;altitude;pressure_sealevel;temperature;humidity
20145;BME280;10233;50.814;6.590;2022-12-08T00:01:10;99797.06;;;5.23;100.00
20145;BME280;10233;50.814;6.590;2022-12-08T00:02:11;99804.50;;;5.20;100.00
20145;BME280;10233;50.814;6.590;2022-12-08T00:03:13;99800.13;;;5.27;100.00
20145;BME280;10233;50.814;6.590;2022-12-08T00:04:13;99798.22;;;5.21;100.00
20145;BME280;10233;50.814;6.590;2022-12-08T00:05:13;99789.59;;;5.27;100.00
20145;BME280;10233;50.814;6.590;2022-12-08T00:06:41;99793.88;;;5.28;100.00
20145;BME280;10233;50.814;6.590;2022-12-08T00:08:01;99786.84;;;5.20;100.00
20145;BME280;10233;50.814;6.590;2022-12-08T00:09:30;99787.59;;;5.14;100.00
20145;BME280;10233;50.814;6.590;2022-12-08T00:10:31;99783.59;;;5.18;100.00
20145;BME280;10233;50.814;6.590;2022-12-08T00:11:32;99786.13;;;5.26;100.00
20145;BME280;10233;50.814;6.590;2022-12-08T00:12:32;99781.16;;;5.31;100.00
20145;BME280;10233;50.814;6.590;2022-12-08T00:13:33;99779.63;;;5.37;100.00
20145;BME280;10233;50.814;6.590;2022-12-08T00:14:41;99777.72;;;5.31;100.00
20145;BME280;10233;50.814;6.590;2022-12-08T00:15:42;99772.41;;;5.16;100.00
20145;BME280;10233;50.814;6.590;2022-12-08T00:16:43;99775.53;;;5.20;100.00
20145;BME280;10233;50.814;6.590;2022-12-08T00:17:43;99781.69;;;5.12;100.00
20145;BME280;10233;50.814;6.590;2022-12-08T00:18:44;99773.97;;;5.11;100.00
20145;BME280;10233;50.814;6.590;2022-12-08T00:19:45;99777.56;;;5.10;100.00
20145;BME280;10233;50.814;6.590;2022-12-08T00:20:45;99772.06;;;5.19;100.00
20145;BME280;10233;50.814;6.590;2022-12-08T00:21:46;99769.59;;;5.03;100.00
20145;BME280;10233;50.814;6.590;2022-12-08T00:22:46;99767.47;;;4.99;100.00
20145;BME280;10233;50.814;6.590;2022-12-08T00:23:47;99768.69;;;5.11;100.00
20145;BME280;10233;50.814;6.590;2022-12-08T00:24:48;99764.50;;;5.02;100.00
20145;BME280;10233;50.814;6.590;2022-12-08T00:25:48;99765.66;;;4.99;100.00
20145;BME280;10233;50.814;6.590;2022-12-08T00:26:49;99762.84;;;5.01;100.00
20145;BME280;10233;50.814;6.590;2022-12-08T00:27:50;99763.94;;;5.06;100.00
20145;BME280;10233;50.814;6.590;2022-12-08T00:28:50;99762.03;;;5.00;100.00
20145;BME280;10233;50.814;6.590;2022-12-08T00:29:50;99753.50;;;4.98;100.00
20145;BME280;10233;50.814;6.590;2022-12-08T00:30:51;99754.41;;;5.05;100.00
20145;BME280;10233;50.814;6.590;2022-12-08T00:31:52;99753.50;;;4.98;100.00
20145;BME280;10233;50.814;6.590;2022-12-08T00:32:52;99754.31;;;4.99;100.00
20145;BME280;10233;50.814;6.590;2022-12-08T00:33:53;99753.94;;;5.02;100.00
20145;BME280;10233;50.814;6.590;2022-12-08T00:34:53;99746.28;;;4.92;100.00
20145;BME280;10233;50.814;6.590;2022-12-08T00:35:53;99752.22;;;4.94;100.00
20145;BME280;10233;50.814;6.590;2022-12-08T00:36:54;99743.13;;;4.97;100.00
20145;BME280;10233;50.814;6.590;2022-12-08T00:37:54;99746.94;;;4.94;100.00
20145;BME280;10233;50.814;6.590;2022-12-08T00:38:56;99747.66;;;4.88;100.00
20145;BME280;10233;50.814;6.590;2022-12-08T00:39:57;99737.22;;;4.95;100.00
20145;BME280;10233;50.814;6.590;2022-12-08T00:40:57;99750.22;;;4.96;100.00
20145;BME280;10233;50.814;6.590;2022-12-08T00:41:58;99743.19;;;4.89;100.00
20145;BME280;10233;50.814;6.590;2022-12-08T00:43:13;99745.66;;;4.90;100.00
20145;BME280;10233;50.814;6.590;2022-12-08T00:44:16;99750.66;;;4.85;100.00
20145;BME280;10233;50.814;6.590;2022-12-08T00:45:19;99744.38;;;4.86;100.00
20145;BME280;10233;50.814;6.590;2022-12-08T00:46:20;99739.47;;;4.83;100.00
20145;BME280;10233;50.814;6.590;2022-12-08T00:47:20;99739.56;;;4.90;100.00
20145;BME280;10233;50.814;6.590;2022-12-08T00:48:21;99741.31;;;4.97;100.00
20145;BME280;10233;50.814;6.590;2022-12-08T00:49:21;99737.22;;;4.95;100.00
20145;BME280;10233;50.814;6.590;2022-12-08T00:50:22;99741.97;;;4.99;100.00
20145;BME280;10233;50.814;6.590;2022-12-08T00:51:22;99736.31;;;5.02;100.00
20145;BME280;10233;50.814;6.590;2022-12-08T00:52:23;99736.75;;;4.91;100.00
20145;BME280;10233;50.814;6.590;2022-12-08T00:53:23;99734.78;;;4.93;100.00
20145;BME280;10233;50.814;6.590;2022-12-08T00:54:24;99734.53;;;5.03;100.00
20145;BME280;10233;50.814;6.590;2022-12-08T00:55:24;99735.63;;;5.08;100.00
20145;BME280;10233;50.814;6.590;2022-12-08T00:56:25;99740.97;;;5.00;100.00
20145;BME280;10233;50.814;6.590;2022-12-08T00:57:29;99728.41;;;5.02;100.00
20145;BME280;10233;50.814;6.590;2022-12-08T00:58:30;99729.16;;;4.96;100.00
20145;BME280;10233;50.814;6.590;2022-12-08T00:59:31;99734.97;;;5.06;100.00
20145;BME280;10233;50.814;6.590;2022-12-08T01:00:31;99730.09;;;5.03;100.00
20145;BME280;10233;50.814;6.590;2022-12-08T01:01:32;99725.78;;;5.02;100.00
20145;BME280;10233;50.814;6.590;2022-12-08T01:02:33;99724.06;;;4.95;100.00
20145;BME280;10233;50.814;6.590;2022-12-08T01:03:34;99728.41;;;5.02;100.00
20145;BME280;10233;50.814;6.590;2022-12-08T01:04:34;99727.06;;;5.06;100.00
20145;BME280;10233;50.814;6.590;2022-12-08T01:05:35;99732.50;;;5.05;100.00
20145;BME280;10233;50.814;6.590;2022-12-08T01:06:36;99729.06;;;5.04;100.00
20145;BME280;10233;50.814;6.590;2022-12-08T01:07:37;99729.31;;;4.95;100.00
20145;BME280;10233;50.814;6.590;2022-12-08T01:08:38;99726.78;;;5.01;100.00
20145;BME280;10233;50.814;6.590;2022-12-08T01:09:39;99727.91;;;5.07;100.00
20145;BME280;10233;50.814;6.590;2022-12-08T01:10:39;99730.16;;;5.10;100.00
20145;BME280;10233;50.814;6.590;2022-12-08T01:11:40;99725.25;;;5.21;100.00
20145;BME280;10233;50.814;6.590;2022-12-08T01:12:41;99732.91;;;5.16;100.00
20145;BME280;10233;50.814;6.590;2022-12-08T01:13:42;99727.28;;;5.19;100.00
20145;BME280;10233;50.814;6.590;2022-12-08T01:14:42;99734.34;;;5.19;100.00
20145;BME280;10233;50.814;6.590;2022-12-08T01:15:43;99730.47;;;5.29;100.00
20145;BME280;10233;50.814;6.590;2022-12-08T01:16:43;99734.84;;;5.22;100.00
20145;BME280;10233;50.814;6.590;2022-12-08T01:17:44;99726.38;;;5.27;100.00
20145;BME280;10233;50.814;6.590;2022-12-08T01:18:44;99728.72;;;5.36;100.00
20145;BME280;10233;50.814;6.590;2022-12-08T01:19:44;99736.34;;;5.31;100.00
20145;BME280;10233;50.814;6.590;2022-12-08T01:20:45;99734.19;;;5.35;100.00
20145;BME280;10233;50.814;6.590;2022-12-08T01:21:46;99723.91;;;5.25;100.00
20145;BME280;10233;50.814;6.590;2022-12-08T01:22:46;99728.56;;;5.23;100.00
20145;BME280;10233;50.814;6.590;2022-12-08T01:23:47;99727.72;;;5.23;100.00
20145;BME280;10233;50.814;6.590;2022-12-08T01:24:47;99732.81;;;5.24;100.00
20145;BME280;10233;50.814;6.590;2022-12-08T01:25:47;99726.38;;;5.27;100.00
20145;BME280;10233;50.814;6.590;2022-12-08T01:26:49;99728.56;;;5.23;100.00
20145;BME280;10233;50.814;6.590;2022-12-08T01:27:51;99731.66;;;5.27;100.00
20145;BME280;10233;50.814;6.590;2022-12-08T01:28:51;99729.56;;;5.37;100.00
20145;BME280;10233;50.814;6.590;2022-12-08T01:29:52;99723.75;;;5.27;100.00
20145;BME280;10233;50.814;6.590;2022-12-08T01:30:52;99724.00;;;5.32;100.00
20145;BME280;10233;50.814;6.590;2022-12-08T01:31:53;99724.47;;;5.35;100.00
20145;BME280;10233;50.814;6.590;2022-12-08T01:32:53;99727.19;;;5.42;100.00
20145;BME280;10233;50.814;6.590;2022-12-08T01:33:54;99725.19;;;5.44;100.00
20145;BME280;10233;50.814;6.590;2022-12-08T01:34:54;99722.47;;;5.37;100.00
20145;BME280;10233;50.814;6.590;2022-12-08T01:35:55;99720.19;;;5.34;100.00
20145;BME280;10233;50.814;6.590;2022-12-08T01:36:55;99726.47;;;5.33;100.00
20145;BME280;10233;50.814;6.590;2022-12-08T01:37:55;99724.09;;;5.38;100.00
20145;BME280;10233;50.814;6.590;2022-12-08T01:39:00;99724.09;;;5.53;100.00
20145;BME280;10233;50.814;6.590;2022-12-08T01:40:01;99723.03;;;5.47;100.00
20145;BME280;10233;50.814;6.590;2022-12-08T01:41:01;99734.91;;;5.43;100.00
20145;BME280;10233;50.814;6.590;2022-12-08T01:42:02;99730.38;;;5.37;100.00
20145;BME280;10233;50.814;6.590;2022-12-08T01:43:02;99731.63;;;5.41;100.00
20145;BME280;10233;50.814;6.590;2022-12-08T01:45:24;99739.81;;;5.46;100.00
20145;BME280;10233;50.814;6.590;2022-12-08T01:46:26;99725.75;;;5.39;100.00
20145;BME280;10233;50.814;6.590;2022-12-08T01:47:35;99727.47;;;5.47;100.00
20145;BME280;10233;50.814;6.590;2022-12-08T01:48:37;99723.28;;;5.52;100.00
20145;BME280;10233;50.814;6.590;2022-12-08T01:49:37;99724.56;;;5.42;100.00
20145;BME280;10233;50.814;6.590;2022-12-08T01:50:38;99719.84;;;5.37;100.00
20145;BME280;10233;50.814;6.590;2022-12-08T01:52:58;99724.28;;;5.51;100.00
20145;BME280;10233;50.814;6.590;2022-12-08T01:54:02;99723.81;;;5.48;100.00
20145;BME280;10233;50.814;6.590;2022-12-08T01:55:07;99723.84;;;5.33;100.00
20145;BME280;10233;50.814;6.590;2022-12-08T01:56:18;99728.19;;;5.26;100.00
20145;BME280;10233;50.814;6.590;2022-12-08T01:57:24;99720.66;;;5.23;100.00
20145;BME280;10233;50.814;6.590;2022-12-08T01:58:38;99721.09;;;5.27;100.00
20145;BME280;10233;50.814;6.590;2022-12-08T01:59:45;99723.38;;;5.15;100.00
20145;BME280;10233;50.814;6.590;2022-12-08T02:00:48;99718.47;;;5.27;100.00
20145;BME280;10233;50.814;6.590;2022-12-08T02:01:50;99715.75;;;5.35;100.00
20145;BME280;10233;50.814;6.590;2022-12-08T02:02:59;99720.56;;;5.31;100.00
20145;BME280;10233;50.814;6.590;2022-12-08T02:04:02;99716.81;;;5.40;100.00
20145;BME280;10233;50.814;6.590;2022-12-08T02:05:05;99710.56;;;5.27;100.00
20145;BME280;10233;50.814;6.590;2022-12-08T02:06:06;99710.75;;;5.25;100.00
20145;BME280;10233;50.814;6.590;2022-12-08T02:07:07;99717.13;;;5.31;100.00
20145;BME280;10233;50.814;6.590;2022-12-08T02:08:11;99712.91;;;5.36;100.00
20145;BME280;10233;50.814;6.590;2022-12-08T02:09:13;99709.31;;;5.37;100.00
20145;BME280;10233;50.814;6.590;2022-12-08T02:10:17;99705.41;;;5.33;100.00
20145;BME280;10233;50.814;6.590;2022-12-08T02:11:18;99704.94;;;5.30;100.00
20145;BME280;10233;50.814;6.590;2022-12-08T02:12:18;99703.84;;;5.39;100.00
20145;BME280;10233;50.814;6.590;2022-12-08T02:13:20;99711.13;;;5.37;100.00
20145;BME280;10233;50.814;6.590;2022-12-08T02:14:23;99704.22;;;5.36;100.00
20145;BME280;10233;50.814;6.590;2022-12-08T02:17:10;99709.03;;;5.32;100.00
20145;BME280;10233;50.814;6.590;2022-12-08T02:21:24;99707.38;;;5.31;100.00
20145;BME280;10233;50.814;6.590;2022-12-08T02:24:22;99702.38;;;5.36;100.00
20145;BME280;10233;50.814;6.590;2022-12-08T02:35:12;99690.41;;;5.48;100.00
20145;BME280;10233;50.814;6.590;2022-12-08T02:36:27;99687.75;;;5.48;100.00
20145;BME280;10233;50.814;6.590;2022-12-08T02:37:41;99681.31;;;5.51;100.00
20145;BME280;10233;50.814;6.590;2022-12-08T02:38:47;99686.13;;;5.47;100.00
20145;BME280;10233;50.814;6.590;2022-12-08T02:42:47;99686.75;;;5.49;100.00
20145;BME280;10233;50.814;6.590;2022-12-08T02:44:11;99679.47;;;5.51;100.00
20145;BME280;10233;50.814;6.590;2022-12-08T02:46:27;99671.69;;;5.43;100.00
20145;BME280;10233;50.814;6.590;2022-12-08T02:47:30;99666.28;;;5.51;100.00
20145;BME280;10233;50.814;6.590;2022-12-08T02:48:32;99671.41;;;5.38;100.00
20145;BME280;10233;50.814;6.590;2022-12-08T02:49:34;99667.50;;;5.34;100.00
20145;BME280;10233;50.814;6.590;2022-12-08T02:50:35;99657.69;;;5.43;100.00
20145;BME280;10233;50.814;6.590;2022-12-08T02:51:36;99664.50;;;5.37;100.00
20145;BME280;10233;50.814;6.590;2022-12-08T02:52:41;99664.56;;;5.44;100.00
20145;BME280;10233;50.814;6.590;2022-12-08T02:53:43;99656.78;;;5.36;100.00
20145;BME280;10233;50.814;6.590;2022-12-08T02:54:49;99659.94;;;5.46;100.00
20145;BME280;10233;50.814;6.590;2022-12-08T02:59:22;99653.97;;;5.37;100.00
20145;BME280;10233;50.814;6.590;2022-12-08T03:00:28;99651.59;;;5.42;100.00
20145;BME280;10233;50.814;6.590;2022-12-08T03:01:37;99653.50;;;5.48;100.00
20145;BME280;10233;50.814;6.590;2022-12-08T03:07:03;99643.75;;;5.49;100.00
20145;BME280;10233;50.814;6.590;2022-12-08T03:08:07;99646.75;;;5.60;100.00
20145;BME280;10233;50.814;6.590;2022-12-08T03:10:59;99643.97;;;5.47;100.00
20145;BME280;10233;50.814;6.590;2022-12-08T03:13:41;99635.16;;;5.40;100.00
20145;BME280;10233;50.814;6.590;2022-12-08T03:14:46;99632.16;;;5.43;100.00
20145;BME280;10233;50.814;6.590;2022-12-08T03:15:49;99635.53;;;5.37;100.00
20145;BME280;10233;50.814;6.590;2022-12-08T03:16:53;99634.25;;;5.33;100.00
20145;BME280;10233;50.814;6.590;2022-12-08T03:17:57;99643.22;;;5.39;100.00
20145;BME280;10233;50.814;6.590;2022-12-08T03:19:12;99633.06;;;5.36;100.00
20145;BME280;10233;50.814;6.590;2022-12-08T03:20:19;99631.41;;;5.49;100.00
20145;BME280;10233;50.814;6.590;2022-12-08T03:21:21;99623.81;;;5.40;100.00
20145;BME280;10233;50.814;6.590;2022-12-08T03:22:24;99636.50;;;5.36;100.00
20145;BME280;10233;50.814;6.590;2022-12-08T03:23:27;99633.06;;;5.36;100.00
20145;BME280;10233;50.814;6.590;2022-12-08T03:24:36;99631.44;;;5.35;100.00
20145;BME280;10233;50.814;6.590;2022-12-08T03:25:42;99626.34;;;5.33;100.00
20145;BME280;10233;50.814;6.590;2022-12-08T03:26:47;99624.25;;;5.29;100.00
20145;BME280;10233;50.814;6.590;2022-12-08T03:27:50;99633.72;;;5.23;100.00
20145;BME280;10233;50.814;6.590;2022-12-08T03:28:51;99626.44;;;5.25;100.00
20145;BME280;10233;50.814;6.590;2022-12-08T03:29:53;99630.78;;;5.33;100.00
20145;BME280;10233;50.814;6.590;2022-12-08T03:30:56;99623.53;;;5.35;100.00
20145;BME280;10233;50.814;6.590;2022-12-08T03:32:06;99619.28;;;5.19;100.00
20145;BME280;10233;50.814;6.590;2022-12-08T03:33:18;99615.56;;;5.14;100.00
20145;BME280;10233;50.814;6.590;2022-12-08T03:34:25;99624.00;;;5.24;100.00
20145;BME280;10233;50.814;6.590;2022-12-08T03:35:29;99619.09;;;5.21;100.00
20145;BME280;10233;50.814;6.590;2022-12-08T03:36:30;99614.75;;;5.13;100.00
20145;BME280;10233;50.814;6.590;2022-12-08T03:37:34;99617.84;;;5.17;100.00
20145;BME280;10233;50.814;6.590;2022-12-08T03:38:40;99620.16;;;5.26;100.00
20145;BME280;10233;50.814;6.590;2022-12-08T03:39:41;99612.38;;;5.18;100.00
20145;BME280;10233;50.814;6.590;2022-12-08T03:40:42;99614.94;;;5.12;100.00
20145;BME280;10233;50.814;6.590;2022-12-08T03:41:42;99610.94;;;5.16;100.00
20145;BME280;10233;50.814;6.590;2022-12-08T03:42:43;99609.09;;;5.16;100.00
20145;BME280;10233;50.814;6.590;2022-12-08T03:43:48;99608.66;;;5.13;100.00
20145;BME280;10233;50.814;6.590;2022-12-08T03:44:49;99614.00;;;5.19;100.00
20145;BME280;10233;50.814;6.590;2022-12-08T03:45:49;99613.19;;;5.19;100.00
20145;BME280;10233;50.814;6.590;2022-12-08T03:46:49;99608.47;;;5.00;100.00
20145;BME280;10233;50.814;6.590;2022-12-08T03:47:50;99597.94;;;5.00;100.00
20145;BME280;10233;50.814;6.590;2022-12-08T03:48:50;99607.56;;;5.07;100.00
20145;BME280;10233;50.814;6.590;2022-12-08T03:49:51;99601.03;;;5.03;100.00
20145;BME280;10233;50.814;6.590;2022-12-08T03:50:52;99606.09;;;5.05;100.00
20145;BME280;10233;50.814;6.590;2022-12-08T03:51:52;99604.13;;;5.07;100.00
20145;BME280;10233;50.814;6.590;2022-12-08T03:52:53;99599.31;;;5.10;100.00
20145;BME280;10233;50.814;6.590;2022-12-08T03:53:53;99602.03;;;5.02;100.00
20145;BME280;10233;50.814;6.590;2022-12-08T03:54:54;99598.75;;;5.00;100.00
20145;BME280;10233;50.814;6.590;2022-12-08T03:55:54;99600.94;;;5.11;100.00
20145;BME280;10233;50.814;6.590;2022-12-08T03:56:55;99595.03;;;4.95;100.00
20145;BME280;10233;50.814;6.590;2022-12-08T03:57:55;99603.59;;;4.97;100.00
20145;BME280;10233;50.814;6.590;2022-12-08T03:58:56;99600.78;;;4.98;100.00
20145;BME280;10233;50.814;6.590;2022-12-08T03:59:57;99597.41;;;4.90;100.00
20145;BME280;10233;50.814;6.590;2022-12-08T04:00:57;99606.84;;;4.84;100.00
20145;BME280;10233;50.814;6.590;2022-12-08T04:01:58;99601.97;;;4.96;100.00
20145;BME280;10233;50.814;6.590;2022-12-08T04:02:58;99601.22;;;4.87;100.00
20145;BME280;10233;50.814;6.590;2022-12-08T04:03:59;99598.69;;;4.94;100.00
20145;BME280;10233;50.814;6.590;2022-12-08T04:04:59;99593.94;;;5.04;100.00
20145;BME280;10233;50.814;6.590;2022-12-08T04:05:59;99595.78;;;5.03;100.00
20145;BME280;10233;50.814;6.590;2022-12-08T04:07:00;99593.84;;;4.97;100.00
20145;BME280;10233;50.814;6.590;2022-12-08T04:08:00;99594.13;;;5.02;100.00
20145;BME280;10233;50.814;6.590;2022-12-08T04:09:01;99593.69;;;4.99;100.00
20145;BME280;10233;50.814;6.590;2022-12-08T04:10:02;99594.78;;;5.04;100.00
20145;BME280;10233;50.814;6.590;2022-12-08T04:11:03;99598.41;;;5.03;100.00
20145;BME280;10233;50.814;6.590;2022-12-08T04:12:05;99587.88;;;5.03;100.00
20145;BME280;10233;50.814;6.590;2022-12-08T04:13:06;99584.25;;;5.04;100.00
20145;BME280;10233;50.814;6.590;2022-12-08T04:14:06;99588.03;;;5.16;100.00
20145;BME280;10233;50.814;6.590;2022-12-08T04:15:07;99586.78;;;5.12;100.00
20145;BME280;10233;50.814;6.590;2022-12-08T04:16:12;99585.31;;;5.10;100.00
20145;BME280;10233;50.814;6.590;2022-12-08T04:17:13;99587.66;;;5.19;100.00
20145;BME280;10233;50.814;6.590;2022-12-08T04:18:14;99580.03;;;5.10;100.00
20145;BME280;10233;50.814;6.590;2022-12-08T04:19:15;99582.13;;;5.00;100.00
20145;BME280;10233;50.814;6.590;2022-12-08T04:20:15;99581.34;;;4.99;100.00
20145;BME280;10233;50.814;6.590;2022-12-08T04:21:16;99586.31;;;5.09;100.00
20145;BME280;10233;50.814;6.590;2022-12-08T04:22:17;99584.88;;;5.06;100.00
20145;BME280;10233;50.814;6.590;2022-12-08T04:23:17;99581.13;;;5.15;100.00
20145;BME280;10233;50.814;6.590;2022-12-08T04:24:18;99577.63;;;5.08;100.00
20145;BME280;10233;50.814;6.590;2022-12-08T04:25:18;99581.78;;;5.17;100.00
20145;BME280;10233;50.814;6.590;2022-12-08T04:26:18;99573.13;;;5.23;100.00
20145;BME280;10233;50.814;6.590;2022-12-08T04:27:22;99576.78;;;5.22;100.00
20145;BME280;10233;50.814;6.590;2022-12-08T04:28:22;99575.59;;;5.10;100.00
20145;BME280;10233;50.814;6.590;2022-12-08T04:29:23;99576.25;;;5.12;100.00
20145;BME280;10233;50.814;6.590;2022-12-08T04:30:23;99583.41;;;5.18;100.00
20145;BME280;10233;50.814;6.590;2022-12-08T04:31:24;99574.41;;;5.13;100.00
20145;BME280;10233;50.814;6.590;2022-12-08T04:32:24;99579.50;;;5.14;100.00
20145;BME280;10233;50.814;6.590;2022-12-08T04:33:25;99574.25;;;5.14;100.00
20145;BME280;10233;50.814;6.590;2022-12-08T04:34:25;99576.78;;;5.22;100.00
20145;BME280;10233;50.814;6.590;2022-12-08T04:35:27;99568.13;;;5.28;100.00
20145;BME280;10233;50.814;6.590;2022-12-08T04:36:27;99568.75;;;5.30;100.00
20145;BME280;10233;50.814;6.590;2022-12-08T04:37:28;99576.13;;;5.20;100.00
20145;BME280;10233;50.814;6.590;2022-12-08T04:38:28;99570.38;;;5.31;100.00
20145;BME280;10233;50.814;6.590;2022-12-08T04:39:30;99573.75;;;5.25;100.00
20145;BME280;10233;50.814;6.590;2022-12-08T04:40:30;99569.69;;;5.23;100.00
20145;BME280;10233;50.814;6.590;2022-12-08T04:41:31;99569.13;;;5.27;100.00
20145;BME280;10233;50.814;6.590;2022-12-08T04:42:32;99566.25;;;5.22;100.00
20145;BME280;10233;50.814;6.590;2022-12-08T04:43:32;99563.41;;;5.24;100.00
20145;BME280;10233;50.814;6.590;2022-12-08T04:44:32;99576.13;;;5.20;100.00
20145;BME280;10233;50.814;6.590;2022-12-08T04:45:33;99575.25;;;5.13;100.00
20145;BME280;10233;50.814;6.590;2022-12-08T04:46:33;99571.03;;;5.19;100.00
20145;BME280;10233;50.814;6.590;2022-12-08T04:47:34;99558.97;;;5.24;100.00
20145;BME280;10233;50.814;6.590;2022-12-08T04:48:38;99567.22;;;5.21;100.00
20145;BME280;10233;50.814;6.590;2022-12-08T04:49:38;99561.41;;;5.26;100.00
20145;BME280;10233;50.814;6.590;2022-12-08T04:50:40;99570.03;;;5.34;100.00
20145;BME280;10233;50.814;6.590;2022-12-08T04:51:41;99568.84;;;5.37;100.00
20145;BME280;10233;50.814;6.590;2022-12-08T04:52:42;99561.09;;;5.35;100.00
20145;BME280;10233;50.814;6.590;2022-12-08T04:53:43;99565.09;;;5.31;100.00
20145;BME280;10233;50.814;6.590;2022-12-08T04:54:43;99567.19;;;5.36;100.00
20145;BME280;10233;50.814;6.590;2022-12-08T04:55:44;99561.69;;;5.31;100.00
20145;BME280;10233;50.814;6.590;2022-12-08T04:56:47;99562.88;;;5.28;100.00
20145;BME280;10233;50.814;6.590;2022-12-08T04:57:48;99568.31;;;5.27;100.00
20145;BME280;10233;50.814;6.590;2022-12-08T04:58:48;99559.41;;;5.28;100.00
20145;BME280;10233;50.814;6.590;2022-12-08T04:59:49;99561.50;;;5.32;100.00
20145;BME280;10233;50.814;6.590;2022-12-08T05:00:50;99565.56;;;5.35;100.00
20145;BME280;10233;50.814;6.590;2022-12-08T05:01:51;99562.88;;;5.28;100.00
20145;BME280;10233;50.814;6.590;2022-12-08T05:02:51;99558.59;;;5.27;100.00
20145;BME280;10233;50.814;6.590;2022-12-08T05:03:51;99560.59;;;5.25;100.00
20145;BME280;10233;50.814;6.590;2022-12-08T05:04:52;99558.13;;;5.24;100.00
20145;BME280;10233;50.814;6.590;2022-12-08T05:05:52;99563.53;;;5.16;100.00
20145;BME280;10233;50.814;6.590;2022-12-08T05:06:53;99567.03;;;5.23;100.00
20145;BME280;10233;50.814;6.590;2022-12-08T05:07:54;99565.97;;;5.17;100.00
20145;BME280;10233;50.814;6.590;2022-12-08T05:08:54;99561.84;;;5.29;100.00
20145;BME280;10233;50.814;6.590;2022-12-08T05:09:55;99559.13;;;5.23;100.00
20145;BME280;10233;50.814;6.590;2022-12-08T05:11:06;99567.97;;;5.15;100.00
20145;BME280;10233;50.814;6.590;2022-12-08T05:12:07;99557.34;;;5.23;100.00
20145;BME280;10233;50.814;6.590;2022-12-08T05:13:07;99567.78;;;5.17;100.00
20145;BME280;10233;50.814;6.590;2022-12-08T05:14:12;99559.78;;;5.25;100.00
20145;BME280;10233;50.814;6.590;2022-12-08T05:15:14;99569.50;;;5.24;100.00
20145;BME280;10233;50.814;6.590;2022-12-08T05:16:15;99564.22;;;5.24;100.00
20145;BME280;10233;50.814;6.590;2022-12-08T05:17:17;99566.78;;;5.18;100.00
20145;BME280;10233;50.814;6.590;2022-12-08T05:18:17;99556.94;;;5.26;100.00
20145;BME280;10233;50.814;6.590;2022-12-08T05:19:18;99560.88;;;5.16;100.00
20145;BME280;10233;50.814;6.590;2022-12-08T05:20:18;99556.72;;;5.07;100.00
20145;BME280;10233;50.814;6.590;2022-12-08T05:21:19;99551.72;;;5.12;100.00
20145;BME280;10233;50.814;6.590;2022-12-08T05:22:19;99550.19;;;5.17;100.00
20145;BME280;10233;50.814;6.590;2022-12-08T05:23:20;99563.09;;;5.12;100.00
20145;BME280;10233;50.814;6.590;2022-12-08T05:24:20;99560.50;;;5.19;100.00
20145;BME280;10233;50.814;6.590;2022-12-08T05:25:20;99553.78;;;5.31;100.00
20145;BME280;10233;50.814;6.590;2022-12-08T05:26:21;99560.31;;;5.20;100.00
20145;BME280;10233;50.814;6.590;2022-12-08T05:27:22;99559.41;;;5.28;100.00
20145;BME280;10233;50.814;6.590;2022-12-08T05:28:23;99553.88;;;5.23;100.00
20145;BME280;10233;50.814;6.590;2022-12-08T05:29:23;99555.50;;;5.24;100.00
20145;BME280;10233;50.814;6.590;2022-12-08T05:30:24;99550.13;;;5.32;100.00
20145;BME280;10233;50.814;6.590;2022-12-08T05:31:24;99553.94;;;5.29;100.00
20145;BME280;10233;50.814;6.590;2022-12-08T05:32:25;99559.91;;;5.38;100.00
20145;BME280;10233;50.814;6.590;2022-12-08T05:33:25;99551.56;;;5.34;100.00
20145;BME280;10233;50.814;6.590;2022-12-08T05:34:26;99556.22;;;5.32;100.00
20145;BME280;10233;50.814;6.590;2022-12-08T05:35:26;99551.41;;;5.36;100.00
20145;BME280;10233;50.814;6.590;2022-12-08T05:36:27;99555.84;;;5.35;100.00
20145;BME280;10233;50.814;6.590;2022-12-08T05:37:27;99549.19;;;5.39;100.00
20145;BME280;10233;50.814;6.590;2022-12-08T05:38:27;99549.78;;;5.35;100.00
20145;BME280;10233;50.814;6.590;2022-12-08T05:39:28;99549.94;;;5.33;100.00
20145;BME280;10233;50.814;6.590;2022-12-08T05:40:29;99550.22;;;5.38;100.00
20145;BME280;10233;50.814;6.590;2022-12-08T05:41:29;99549.28;;;5.46;100.00
20145;BME280;10233;50.814;6.590;2022-12-08T05:42:29;99551.56;;;5.34;100.00
20145;BME280;10233;50.814;6.590;2022-12-08T05:43:30;99544.09;;;5.38;100.00
20145;BME280;10233;50.814;6.590;2022-12-08T05:44:31;99550.38;;;5.37;100.00
20145;BME280;10233;50.814;6.590;2022-12-08T05:45:32;99544.19;;;5.44;100.00
20145;BME280;10233;50.814;6.590;2022-12-08T05:46:34;99550.97;;;5.32;100.00
20145;BME280;10233;50.814;6.590;2022-12-08T05:47:36;99548.63;;;5.44;100.00
20145;BME280;10233;50.814;6.590;2022-12-08T05:48:37;99538.09;;;5.44;100.00
20145;BME280;10233;50.814;6.590;2022-12-08T05:49:38;99550.47;;;5.43;100.00
20145;BME280;10233;50.814;6.590;2022-12-08T05:50:38;99541.28;;;5.39;100.00
20145;BME280;10233;50.814;6.590;2022-12-08T05:51:39;99544.00;;;5.46;100.00
20145;BME280;10233;50.814;6.590;2022-12-08T05:52:39;99543.56;;;5.42;100.00
20145;BME280;10233;50.814;6.590;2022-12-08T05:53:40;99540.03;;;5.35;100.00
20145;BME280;10233;50.814;6.590;2022-12-08T05:54:40;99535.50;;;5.29;100.00
20145;BME280;10233;50.814;6.590;2022-12-08T05:55:40;99539.22;;;5.35;100.00
20145;BME280;10233;50.814;6.590;2022-12-08T05:56:41;99535.44;;;5.44;100.00
20145;BME280;10233;50.814;6.590;2022-12-08T05:57:42;99537.66;;;5.40;100.00
20145;BME280;10233;50.814;6.590;2022-12-08T05:58:42;99527.13;;;5.40;100.00
20145;BME280;10233;50.814;6.590;2022-12-08T05:59:43;99534.75;;;5.35;100.00
20145;BME280;10233;50.814;6.590;2022-12-08T06:00:44;99530.75;;;5.39;100.00
20145;BME280;10233;50.814;6.590;2022-12-08T06:01:45;99534.66;;;5.43;100.00
20145;BME280;10233;50.814;6.590;2022-12-08T06:02:46;99537.97;;;5.52;100.00
20145;BME280;10233;50.814;6.590;2022-12-08T06:03:46;99536.97;;;5.53;100.00